sensor_id;sensor_type;location;lat;lon;timestamp;pressure;altitude;pressure_sealevel;temperature;humidity
39455;BME280;25155;41.890;23.446;2023-03-23T00:01:30;91797.66;;;2.26;64.61
39455;BME280;25155;41.890;23.446;2023-03-23T00:04:03;91796.63;;;2.27;64.73
39455;BME280;25155;41.890;23.446;2023-03-23T00:06:31;91797.19;;;2.29;65.35
39455;BME280;25155;41.890;23.446;2023-03-23T00:09:00;91793.03;;;2.28;65.02
39455;BME280;25155;41.890;23.446;2023-03-23T00:11:30;91787.63;;;2.30;65.25
39455;BME280;25155;41.890;23.446;2023-03-23T00:14:00;91780.50;;;2.20;64.82
39455;BME280;25155;41.890;23.446;2023-03-23T00:16:31;91789.34;;;2.24;65.23
39455;BME280;25155;41.890;23.446;2023-03-23T00:19:04;91783.63;;;2.22;65.14
39455;BME280;25155;41.890;23.446;2023-03-23T00:21:34;91785.81;;;2.13;65.33
39455;BME280;25155;41.890;23.446;2023-03-23T00:24:05;91783.38;;;2.07;65.65
39455;BME280;25155;41.890;23.446;2023-03-23T00:26:33;91786.97;;;2.06;65.52
39455;BME280;25155;41.890;23.446;2023-03-23T00:29:02;91787.66;;;2.01;66.00
39455;BME280;25155;41.890;23.446;2023-03-23T00:31:31;91792.56;;;1.57;65.79
39455;BME280;25155;41.890;23.446;2023-03-23T00:34:02;91785.28;;;1.42;66.67
39455;BME280;25155;41.890;23.446;2023-03-23T00:36:31;91788.53;;;1.49;66.64
39455;BME280;25155;41.890;23.446;2023-03-23T00:39:00;91788.06;;;1.52;66.67
39455;BME280;25155;41.890;23.446;2023-03-23T00:41:28;91783.22;;;1.56;66.59
39455;BME280;25155;41.890;23.446;2023-03-23T00:43:57;91786.91;;;1.60;66.67
39455;BME280;25155;41.890;23.446;2023-03-23T00:46:26;91795.56;;;1.66;66.18
39455;BME280;25155;41.890;23.446;2023-03-23T00:48:56;91791.94;;;1.67;66.44
39455;BME280;25155;41.890;23.446;2023-03-23T00:51:24;91790.16;;;1.67;66.55
39455;BME280;25155;41.890;23.446;2023-03-23T00:53:51;91797.00;;;1.61;66.50
39455;BME280;25155;41.890;23.446;2023-03-23T00:56:18;91798.66;;;1.39;67.45
39455;BME280;25155;41.890;23.446;2023-03-23T00:58:45;91791.72;;;1.28;67.78
39455;BME280;25155;41.890;23.446;2023-03-23T01:01:13;91796.44;;;1.31;67.73
39455;BME280;25155;41.890;23.446;2023-03-23T01:03:40;91793.16;;;1.35;67.51
39455;BME280;25155;41.890;23.446;2023-03-23T01:06:10;91788.56;;;1.37;66.79
39455;BME280;25155;41.890;23.446;2023-03-23T01:08:40;91801.47;;;1.37;67.06
39455;BME280;25155;41.890;23.446;2023-03-23T01:11:12;91793.41;;;1.34;66.68
39455;BME280;25155;41.890;23.446;2023-03-23T01:13:41;91792.41;;;1.11;68.02
39455;BME280;25155;41.890;23.446;2023-03-23T01:16:09;91795.47;;;0.84;69.80
39455;BME280;25155;41.890;23.446;2023-03-23T01:18:37;91797.59;;;0.76;70.54
39455;BME280;25155;41.890;23.446;2023-03-23T01:21:05;91802.19;;;0.74;71.56
39455;BME280;25155;41.890;23.446;2023-03-23T01:23:34;91797.94;;;0.67;71.41
39455;BME280;25155;41.890;23.446;2023-03-23T01:26:05;91796.34;;;0.78;71.19
39455;BME280;25155;41.890;23.446;2023-03-23T01:28:34;91797.59;;;0.87;70.99
39455;BME280;25155;41.890;23.446;2023-03-23T01:31:03;91798.69;;;0.92;70.52
39455;BME280;25155;41.890;23.446;2023-03-23T01:33:32;91798.59;;;0.98;70.49
39455;BME280;25155;41.890;23.446;2023-03-23T01:36:03;91800.94;;;1.00;70.25
39455;BME280;25155;41.890;23.446;2023-03-23T01:38:32;91799.28;;;1.05;69.55
39455;BME280;25155;41.890;23.446;2023-03-23T01:41:01;91797.03;;;1.09;69.42
39455;BME280;25155;41.890;23.446;2023-03-23T01:43:29;91804.06;;;1.14;69.14
39455;BME280;25155;41.890;23.446;2023-03-23T01:45:57;91799.47;;;1.16;68.65
39455;BME280;25155;41.890;23.446;2023-03-23T01:48:27;91795.88;;;1.17;68.77
39455;BME280;25155;41.890;23.446;2023-03-23T01:50:58;91798.22;;;1.18;68.53
39455;BME280;25155;41.890;23.446;2023-03-23T01:53:30;91804.19;;;1.19;68.02
39455;BME280;25155;41.890;23.446;2023-03-23T01:56:01;91799.47;;;1.16;67.77
39455;BME280;25155;41.890;23.446;2023-03-23T01:58:31;91808.44;;;1.13;66.83
39455;BME280;25155;41.890;23.446;2023-03-23T02:01:03;91806.53;;;1.09;67.19
39455;BME280;25155;41.890;23.446;2023-03-23T02:03:32;91807.25;;;1.04;66.65
39455;BME280;25155;41.890;23.446;2023-03-23T02:06:03;91801.84;;;0.94;67.20
39455;BME280;25155;41.890;23.446;2023-03-23T02:08:31;91803.53;;;0.88;67.16
39455;BME280;25155;41.890;23.446;2023-03-23T02:11:01;91810.38;;;0.82;66.85
39455;BME280;25155;41.890;23.446;2023-03-23T02:13:31;91810.13;;;0.72;67.41
39455;BME280;25155;41.890;23.446;2023-03-23T02:16:05;91807.88;;;0.64;67.38
39455;BME280;25155;41.890;23.446;2023-03-23T02:18:50;91813.84;;;0.64;67.56
39455;BME280;25155;41.890;23.446;2023-03-23T02:21:50;91817.44;;;0.63;67.92
39455;BME280;25155;41.890;23.446;2023-03-23T02:24:32;91817.75;;;0.67;67.78
39455;BME280;25155;41.890;23.446;2023-03-23T02:27:06;91818.91;;;0.71;67.66
39455;BME280;25155;41.890;23.446;2023-03-23T02:30:15;91815.75;;;0.69;67.34
39455;BME280;25155;41.890;23.446;2023-03-23T02:35:37;91812.94;;;0.70;67.66
39455;BME280;25155;41.890;23.446;2023-03-23T02:38:09;91805.41;;;0.69;67.39
39455;BME280;25155;41.890;23.446;2023-03-23T02:40:41;91805.56;;;0.74;67.20
39455;BME280;25155;41.890;23.446;2023-03-23T02:43:13;91813.97;;;0.81;67.33
39455;BME280;25155;41.890;23.446;2023-03-23T02:45:41;91815.53;;;0.82;67.18
39455;BME280;25155;41.890;23.446;2023-03-23T02:48:13;91810.84;;;0.79;67.19
39455;BME280;25155;41.890;23.446;2023-03-23T02:50:45;91816.88;;;0.73;67.27
39455;BME280;25155;41.890;23.446;2023-03-23T02:53:18;91821.38;;;0.78;67.10
39455;BME280;25155;41.890;23.446;2023-03-23T02:55:48;91821.38;;;0.78;66.91
39455;BME280;25155;41.890;23.446;2023-03-23T02:58:19;91825.16;;;0.75;66.92
39455;BME280;25155;41.890;23.446;2023-03-23T03:00:48;91828.78;;;0.74;67.38
39455;BME280;25155;41.890;23.446;2023-03-23T03:03:19;91830.31;;;0.75;67.34
39455;BME280;25155;41.890;23.446;2023-03-23T03:05:53;91825.63;;;0.72;67.30
39455;BME280;25155;41.890;23.446;2023-03-23T03:08:31;91826.06;;;0.69;67.14
39455;BME280;25155;41.890;23.446;2023-03-23T03:11:03;91824.50;;;0.68;67.05
39455;BME280;25155;41.890;23.446;2023-03-23T03:13:38;91825.50;;;0.67;67.61
39455;BME280;25155;41.890;23.446;2023-03-23T03:16:18;91810.94;;;0.61;67.58
39455;BME280;25155;41.890;23.446;2023-03-23T03:18:52;91814.28;;;0.61;67.37
39455;BME280;25155;41.890;23.446;2023-03-23T03:21:27;91812.25;;;0.51;68.43
39455;BME280;25155;41.890;23.446;2023-03-23T03:23:56;91817.41;;;0.51;68.31
39455;BME280;25155;41.890;23.446;2023-03-23T03:26:26;91820.81;;;0.22;68.38
39455;BME280;25155;41.890;23.446;2023-03-23T03:28:55;91811.44;;;0.39;68.24
39455;BME280;25155;41.890;23.446;2023-03-23T03:31:26;91805.84;;;0.42;67.69
39455;BME280;25155;41.890;23.446;2023-03-23T03:33:55;91809.00;;;0.44;67.88
39455;BME280;25155;41.890;23.446;2023-03-23T03:36:27;91813.34;;;0.44;67.87
39455;BME280;25155;41.890;23.446;2023-03-23T03:39:03;91812.91;;;0.47;67.55
39455;BME280;25155;41.890;23.446;2023-03-23T03:41:33;91810.47;;;0.52;67.56
39455;BME280;25155;41.890;23.446;2023-03-23T03:44:01;91812.81;;;0.54;67.28
39455;BME280;25155;41.890;23.446;2023-03-23T03:46:29;91813.25;;;0.50;67.21
39455;BME280;25155;41.890;23.446;2023-03-23T03:48:57;91820.78;;;0.52;67.69
39455;BME280;25155;41.890;23.446;2023-03-23T03:51:27;91809.34;;;0.48;67.48
39455;BME280;25155;41.890;23.446;2023-03-23T03:53:55;91815.72;;;0.45;67.59
39455;BME280;25155;41.890;23.446;2023-03-23T03:56:23;91810.22;;;0.42;67.66
39455;BME280;25155;41.890;23.446;2023-03-23T03:58:52;91822.00;;;0.38;67.45
39455;BME280;25155;41.890;23.446;2023-03-23T04:01:21;91815.25;;;0.37;68.01
39455;BME280;25155;41.890;23.446;2023-03-23T04:03:50;91808.31;;;0.37;67.55
39455;BME280;25155;41.890;23.446;2023-03-23T04:06:17;91816.25;;;0.36;67.48
39455;BME280;25155;41.890;23.446;2023-03-23T04:08:46;91823.53;;;0.27;67.83
39455;BME280;25155;41.890;23.446;2023-03-23T04:11:14;91822.84;;;0.20;68.40
39455;BME280;25155;41.890;23.446;2023-03-23T04:13:42;91827.88;;;0.14;69.63
39455;BME280;25155;41.890;23.446;2023-03-23T04:16:10;91831.69;;;-0.18;71.07
39455;BME280;25155;41.890;23.446;2023-03-23T04:18:37;91829.78;;;-0.42;72.32
39455;BME280;25155;41.890;23.446;2023-03-23T04:21:05;91840.78;;;-0.53;72.99
39455;BME280;25155;41.890;23.446;2023-03-23T04:23:34;91844.78;;;-0.57;74.14
39455;BME280;25155;41.890;23.446;2023-03-23T04:26:04;91845.59;;;-0.56;74.33
39455;BME280;25155;41.890;23.446;2023-03-23T04:28:31;91849.09;;;-0.51;73.97
39455;BME280;25155;41.890;23.446;2023-03-23T04:31:00;91857.38;;;-0.49;74.18
39455;BME280;25155;41.890;23.446;2023-03-23T04:33:28;91849.28;;;-0.52;74.36
39455;BME280;25155;41.890;23.446;2023-03-23T04:36:00;91845.09;;;-0.47;74.52
39455;BME280;25155;41.890;23.446;2023-03-23T04:38:28;91850.16;;;-0.40;74.72
39455;BME280;25155;41.890;23.446;2023-03-23T04:40:58;91860.53;;;-0.47;75.28
39455;BME280;25155;41.890;23.446;2023-03-23T04:43:29;91854.03;;;-0.49;75.37
39455;BME280;25155;41.890;23.446;2023-03-23T04:45:59;91858.88;;;-0.41;75.24
39455;BME280;25155;41.890;23.446;2023-03-23T04:48:34;91860.38;;;-0.52;75.49
39455;BME280;25155;41.890;23.446;2023-03-23T04:51:05;91860.16;;;-0.50;74.89
39455;BME280;25155;41.890;23.446;2023-03-23T04:53:33;91855.53;;;-0.42;74.45
39455;BME280;25155;41.890;23.446;2023-03-23T04:56:01;91862.44;;;-0.42;74.27
39455;BME280;25155;41.890;23.446;2023-03-23T04:58:30;91867.16;;;-0.39;74.50
39455;BME280;25155;41.890;23.446;2023-03-23T05:00:59;91865.53;;;-0.33;74.04
39455;BME280;25155;41.890;23.446;2023-03-23T05:03:27;91859.56;;;-0.34;74.74
39455;BME280;25155;41.890;23.446;2023-03-23T05:05:54;91854.50;;;-0.41;75.64
39455;BME280;25155;41.890;23.446;2023-03-23T05:08:23;91857.38;;;-0.49;77.16
39455;BME280;25155;41.890;23.446;2023-03-23T05:10:51;91856.47;;;-0.54;77.77
39455;BME280;25155;41.890;23.446;2023-03-23T05:13:19;91859.44;;;-0.57;78.90
39455;BME280;25155;41.890;23.446;2023-03-23T05:15:48;91858.31;;;-0.62;79.55
39455;BME280;25155;41.890;23.446;2023-03-23T05:18:15;91866.19;;;-0.75;80.34
39455;BME280;25155;41.890;23.446;2023-03-23T05:20:43;91859.59;;;-0.71;80.50
39455;BME280;25155;41.890;23.446;2023-03-23T05:23:12;91858.41;;;-0.68;80.85
39455;BME280;25155;41.890;23.446;2023-03-23T05:25:40;91861.47;;;-0.60;80.89
39455;BME280;25155;41.890;23.446;2023-03-23T05:28:08;91860.16;;;-0.50;80.79
39455;BME280;25155;41.890;23.446;2023-03-23T05:30:37;91856.44;;;-0.36;80.57
39455;BME280;25155;41.890;23.446;2023-03-23T05:33:07;91854.28;;;-0.20;80.22
39455;BME280;25155;41.890;23.446;2023-03-23T05:35:34;91851.69;;;-0.02;79.66
39455;BME280;25155;41.890;23.446;2023-03-23T05:38:02;91863.72;;;0.16;79.50
39455;BME280;25155;41.890;23.446;2023-03-23T05:40:29;91855.66;;;0.24;79.00
39455;BME280;25155;41.890;23.446;2023-03-23T05:42:56;91871.44;;;0.46;79.03
39455;BME280;25155;41.890;23.446;2023-03-23T05:45:25;91865.97;;;0.55;78.61
39455;BME280;25155;41.890;23.446;2023-03-23T05:47:53;91871.03;;;0.61;78.04
39455;BME280;25155;41.890;23.446;2023-03-23T05:50:21;91874.16;;;0.63;77.75
39455;BME280;25155;41.890;23.446;2023-03-23T05:52:49;91874.06;;;0.70;77.76
39455;BME280;25155;41.890;23.446;2023-03-23T05:55:17;91867.69;;;0.73;77.29
39455;BME280;25155;41.890;23.446;2023-03-23T05:57:44;91874.75;;;0.77;76.83
39455;BME280;25155;41.890;23.446;2023-03-23T06:00:12;91872.75;;;0.79;76.44
39455;BME280;25155;41.890;23.446;2023-03-23T06:02:46;91874.53;;;0.79;76.44
39455;BME280;25155;41.890;23.446;2023-03-23T06:05:16;91869.94;;;0.81;75.88
39455;BME280;25155;41.890;23.446;2023-03-23T06:07:45;91887.78;;;0.82;76.09
39455;BME280;25155;41.890;23.446;2023-03-23T06:10:12;91885.97;;;0.83;75.52
39455;BME280;25155;41.890;23.446;2023-03-23T06:12:40;91886.53;;;0.85;75.65
39455;BME280;25155;41.890;23.446;2023-03-23T06:15:09;91887.91;;;0.87;75.57
39455;BME280;25155;41.890;23.446;2023-03-23T06:17:36;91879.72;;;0.91;75.65
39455;BME280;25155;41.890;23.446;2023-03-23T06:20:05;91893.28;;;0.98;75.18
39455;BME280;25155;41.890;23.446;2023-03-23T06:22:37;91891.72;;;0.97;75.28
39455;BME280;25155;41.890;23.446;2023-03-23T06:25:08;91889.94;;;0.97;75.14
39455;BME280;25155;41.890;23.446;2023-03-23T06:27:37;91896.00;;;1.03;75.33
39455;BME280;25155;41.890;23.446;2023-03-23T06:30:06;91901.81;;;0.98;75.54
39455;BME280;25155;41.890;23.446;2023-03-23T06:32:33;91894.72;;;0.94;75.67
39455;BME280;25155;41.890;23.446;2023-03-23T06:35:01;91881.69;;;0.77;75.49
39455;BME280;25155;41.890;23.446;2023-03-23T06:37:29;91896.66;;;0.98;75.66
39455;BME280;25155;41.890;23.446;2023-03-23T06:39:56;91901.69;;;1.05;75.45
39455;BME280;25155;41.890;23.446;2023-03-23T06:42:25;91902.16;;;1.02;75.48
39455;BME280;25155;41.890;23.446;2023-03-23T06:44:52;91908.44;;;1.06;75.49
39455;BME280;25155;41.890;23.446;2023-03-23T06:47:22;91908.22;;;1.07;75.59
39455;BME280;25155;41.890;23.446;2023-03-23T06:49:50;91908.13;;;1.02;75.81
39455;BME280;25155;41.890;23.446;2023-03-23T06:52:17;91899.13;;;1.05;76.46
39455;BME280;25155;41.890;23.446;2023-03-23T06:54:44;91907.22;;;1.20;76.22
39455;BME280;25155;41.890;23.446;2023-03-23T06:57:11;91910.91;;;1.36;76.86
39455;BME280;25155;41.890;23.446;2023-03-23T06:59:40;91905.97;;;1.47;76.47
39455;BME280;25155;41.890;23.446;2023-03-23T07:02:09;91903.84;;;1.55;77.15
39455;BME280;25155;41.890;23.446;2023-03-23T07:04:37;91904.59;;;1.68;76.69
39455;BME280;25155;41.890;23.446;2023-03-23T07:07:04;91903.25;;;1.77;76.93
39455;BME280;25155;41.890;23.446;2023-03-23T07:09:31;91906.41;;;1.79;76.98
39455;BME280;25155;41.890;23.446;2023-03-23T07:11:58;91900.91;;;1.75;77.67
39455;BME280;25155;41.890;23.446;2023-03-23T07:14:25;91907.41;;;1.66;77.35
39455;BME280;25155;41.890;23.446;2023-03-23T07:16:54;91904.59;;;1.68;77.86
39455;BME280;25155;41.890;23.446;2023-03-23T07:19:21;91895.41;;;1.72;78.63
39455;BME280;25155;41.890;23.446;2023-03-23T07:21:48;91902.94;;;1.73;78.87
39455;BME280;25155;41.890;23.446;2023-03-23T07:24:16;91901.91;;;1.74;79.38
39455;BME280;25155;41.890;23.446;2023-03-23T07:26:44;91903.25;;;1.77;79.18
39455;BME280;25155;41.890;23.446;2023-03-23T07:29:11;91906.59;;;1.89;78.89
39455;BME280;25155;41.890;23.446;2023-03-23T07:31:39;91905.56;;;2.02;79.22
39455;BME280;25155;41.890;23.446;2023-03-23T07:34:08;91898.31;;;2.16;78.85
39455;BME280;25155;41.890;23.446;2023-03-23T07:36:36;91897.50;;;2.27;79.04
39455;BME280;25155;41.890;23.446;2023-03-23T07:39:03;91897.06;;;2.47;79.01
39455;BME280;25155;41.890;23.446;2023-03-23T07:41:32;91885.19;;;2.63;78.37
39455;BME280;25155;41.890;23.446;2023-03-23T07:43:59;91899.09;;;2.91;77.99
39455;BME280;25155;41.890;23.446;2023-03-23T07:46:26;91894.97;;;3.07;77.85
39455;BME280;25155;41.890;23.446;2023-03-23T07:48:53;91901.25;;;3.28;77.36
39455;BME280;25155;41.890;23.446;2023-03-23T07:51:23;91902.25;;;3.44;77.08
39455;BME280;25155;41.890;23.446;2023-03-23T07:53:52;91897.34;;;3.64;76.96
39455;BME280;25155;41.890;23.446;2023-03-23T07:56:20;91905.06;;;3.81;76.40
39455;BME280;25155;41.890;23.446;2023-03-23T07:58:48;91901.41;;;3.99;76.20
39455;BME280;25155;41.890;23.446;2023-03-23T08:01:15;91896.41;;;4.15;75.93
39455;BME280;25155;41.890;23.446;2023-03-23T08:03:42;91889.63;;;4.36;75.64
39455;BME280;25155;41.890;23.446;2023-03-23T08:06:10;91887.44;;;4.50;74.25
39455;BME280;25155;41.890;23.446;2023-03-23T08:08:38;91886.75;;;4.60;73.50
39455;BME280;25155;41.890;23.446;2023-03-23T08:11:06;91883.78;;;4.73;73.07
39455;BME280;25155;41.890;23.446;2023-03-23T08:13:33;91875.09;;;4.89;72.49
39455;BME280;25155;41.890;23.446;2023-03-23T08:16:01;91875.28;;;5.15;72.41
39455;BME280;25155;41.890;23.446;2023-03-23T08:18:29;91878.56;;;5.38;71.79
39455;BME280;25155;41.890;23.446;2023-03-23T08:20:57;91878.22;;;5.61;71.44
39455;BME280;25155;41.890;23.446;2023-03-23T08:23:25;91874.94;;;5.86;71.93
39455;BME280;25155;41.890;23.446;2023-03-23T08:25:53;91873.25;;;6.13;71.92
39455;BME280;25155;41.890;23.446;2023-03-23T08:28:21;91870.44;;;6.40;70.50
39455;BME280;25155;41.890;23.446;2023-03-23T08:30:49;91867.66;;;6.62;69.00
39455;BME280;25155;41.890;23.446;2023-03-23T08:33:16;91866.66;;;6.78;67.09
39455;BME280;25155;41.890;23.446;2023-03-23T08:35:44;91867.69;;;6.93;65.28
39455;BME280;25155;41.890;23.446;2023-03-23T08:38:11;91855.97;;;7.11;63.92
39455;BME280;25155;41.890;23.446;2023-03-23T08:40:38;91851.03;;;7.25;64.49
39455;BME280;25155;41.890;23.446;2023-03-23T08:43:07;91858.81;;;7.50;64.88
39455;BME280;25155;41.890;23.446;2023-03-23T08:45:34;91856.72;;;7.68;61.15
39455;BME280;25155;41.890;23.446;2023-03-23T08:48:02;91849.91;;;7.77;60.55
39455;BME280;25155;41.890;23.446;2023-03-23T08:50:29;91856.38;;;7.90;59.02
39455;BME280;25155;41.890;23.446;2023-03-23T08:52:57;91842.00;;;8.03;59.74
39455;BME280;25155;41.890;23.446;2023-03-23T08:55:25;91850.25;;;8.20;60.54
39455;BME280;25155;41.890;23.446;2023-03-23T08:57:53;91843.66;;;8.38;58.87
39455;BME280;25155;41.890;23.446;2023-03-23T09:00:22;91851.19;;;8.45;56.71
39455;BME280;25155;41.890;23.446;2023-03-23T09:02:52;91848.19;;;8.22;56.72
39455;BME280;25155;41.890;23.446;2023-03-23T09:05:21;91847.03;;;8.44;56.61
39455;BME280;25155;41.890;23.446;2023-03-23T09:07:51;91842.75;;;8.63;56.58
39455;BME280;25155;41.890;23.446;2023-03-23T09:10:20;91843.66;;;8.83;55.57
39455;BME280;25155;41.890;23.446;2023-03-23T09:12:48;91837.56;;;8.98;54.29
39455;BME280;25155;41.890;23.446;2023-03-23T09:15:16;91840.06;;;9.13;53.01
39455;BME280;25155;41.890;23.446;2023-03-23T09:17:47;91838.41;;;9.23;50.32
39455;BME280;25155;41.890;23.446;2023-03-23T09:20:18;91846.00;;;9.24;48.50
39455;BME280;25155;41.890;23.446;2023-03-23T09:22:47;91839.22;;;9.23;49.08
39455;BME280;25155;41.890;23.446;2023-03-23T09:25:18;91841.78;;;9.28;46.49
39455;BME280;25155;41.890;23.446;2023-03-23T09:27:49;91829.09;;;9.41;47.61
39455;BME280;25155;41.890;23.446;2023-03-23T09:30:19;91835.22;;;9.60;48.09
39455;BME280;25155;41.890;23.446;2023-03-23T09:32:47;91832.47;;;9.70;48.08
39455;BME280;25155;41.890;23.446;2023-03-23T09:35:15;91823.91;;;9.89;49.02
39455;BME280;25155;41.890;23.446;2023-03-23T09:37:44;91821.06;;;10.09;50.33
39455;BME280;25155;41.890;23.446;2023-03-23T09:40:14;91823.94;;;10.32;50.48
39455;BME280;25155;41.890;23.446;2023-03-23T09:43:07;91816.97;;;10.46;45.09
39455;BME280;25155;41.890;23.446;2023-03-23T09:45:49;91821.16;;;10.47;44.12
39455;BME280;25155;41.890;23.446;2023-03-23T09:48:32;91809.84;;;10.52;42.33
39455;BME280;25155;41.890;23.446;2023-03-23T09:51:14;91812.09;;;10.59;42.46
39455;BME280;25155;41.890;23.446;2023-03-23T09:53:42;91810.50;;;10.39;42.23
39455;BME280;25155;41.890;23.446;2023-03-23T09:56:13;91807.97;;;10.72;41.44
39455;BME280;25155;41.890;23.446;2023-03-23T09:58:46;91807.47;;;10.89;40.67
39455;BME280;25155;41.890;23.446;2023-03-23T10:01:20;91806.81;;;10.97;40.63
39455;BME280;25155;41.890;23.446;2023-03-23T10:03:55;91805.94;;;11.01;40.23
39455;BME280;25155;41.890;23.446;2023-03-23T10:06:25;91806.56;;;11.12;40.85
39455;BME280;25155;41.890;23.446;2023-03-23T10:08:56;91799.91;;;11.20;40.15
39455;BME280;25155;41.890;23.446;2023-03-23T10:11:27;91796.03;;;10.98;40.79
39455;BME280;25155;41.890;23.446;2023-03-23T10:14:17;91801.56;;;11.30;40.34
39455;BME280;25155;41.890;23.446;2023-03-23T10:16:54;91792.88;;;11.48;40.17
39455;BME280;25155;41.890;23.446;2023-03-23T10:19:29;91789.50;;;11.62;39.66
39455;BME280;25155;41.890;23.446;2023-03-23T10:22:01;91787.75;;;11.71;38.49
39455;BME280;25155;41.890;23.446;2023-03-23T10:24:35;91782.41;;;11.76;38.06
39455;BME280;25155;41.890;23.446;2023-03-23T10:27:14;91787.25;;;11.83;39.21
39455;BME280;25155;41.890;23.446;2023-03-23T10:29:49;91774.72;;;11.93;39.93
39455;BME280;25155;41.890;23.446;2023-03-23T10:32:23;91773.25;;;12.15;39.40
39455;BME280;25155;41.890;23.446;2023-03-23T10:34:57;91768.66;;;12.21;36.78
39455;BME280;25155;41.890;23.446;2023-03-23T10:37:34;91755.13;;;12.27;37.60
39455;BME280;25155;41.890;23.446;2023-03-23T10:40:04;91755.56;;;12.43;38.13
39455;BME280;25155;41.890;23.446;2023-03-23T10:42:37;91756.06;;;12.45;36.09
39455;BME280;25155;41.890;23.446;2023-03-23T10:45:14;91752.38;;;12.46;36.26
39455;BME280;25155;41.890;23.446;2023-03-23T10:47:46;91754.88;;;12.52;36.89
39455;BME280;25155;41.890;23.446;2023-03-23T10:50:18;91752.69;;;12.67;36.05
39455;BME280;25155;41.890;23.446;2023-03-23T10:52:50;91749.72;;;12.83;35.85
39455;BME280;25155;41.890;23.446;2023-03-23T10:55:20;91745.06;;;13.02;37.14
39455;BME280;25155;41.890;23.446;2023-03-23T10:58:00;91740.38;;;13.22;37.38
39455;BME280;25155;41.890;23.446;2023-03-23T11:00:29;91738.72;;;13.35;34.81
39455;BME280;25155;41.890;23.446;2023-03-23T11:03:01;91736.22;;;13.30;32.57
39455;BME280;25155;41.890;23.446;2023-03-23T11:05:36;91737.13;;;13.25;31.86
39455;BME280;25155;41.890;23.446;2023-03-23T11:08:11;91737.47;;;13.23;32.29
39455;BME280;25155;41.890;23.446;2023-03-23T11:10:46;91737.50;;;13.32;31.48
39455;BME280;25155;41.890;23.446;2023-03-23T11:13:16;91723.16;;;13.47;33.71
39455;BME280;25155;41.890;23.446;2023-03-23T11:15:46;91730.34;;;13.64;34.06
39455;BME280;25155;41.890;23.446;2023-03-23T11:18:19;91731.31;;;13.68;32.63
39455;BME280;25155;41.890;23.446;2023-03-23T11:20:53;91723.72;;;13.67;32.73
39455;BME280;25155;41.890;23.446;2023-03-23T11:23:25;91719.97;;;13.68;31.64
39455;BME280;25155;41.890;23.446;2023-03-23T11:25:57;91719.38;;;13.71;33.39
39455;BME280;25155;41.890;23.446;2023-03-23T11:28:31;91718.91;;;13.69;32.96
39455;BME280;25155;41.890;23.446;2023-03-23T11:31:02;91712.88;;;13.68;33.02
39455;BME280;25155;41.890;23.446;2023-03-23T11:33:35;91704.69;;;13.78;33.50
39455;BME280;25155;41.890;23.446;2023-03-23T11:36:07;91704.88;;;13.91;33.67
39455;BME280;25155;41.890;23.446;2023-03-23T11:38:36;91715.13;;;13.92;34.22
39455;BME280;25155;41.890;23.446;2023-03-23T11:41:09;91705.84;;;14.04;34.83
39455;BME280;25155;41.890;23.446;2023-03-23T11:43:46;91702.59;;;14.15;34.18
39455;BME280;25155;41.890;23.446;2023-03-23T11:46:20;91710.50;;;14.15;35.93
39455;BME280;25155;41.890;23.446;2023-03-23T11:48:57;91712.84;;;14.08;34.66
39455;BME280;25155;41.890;23.446;2023-03-23T11:51:31;91709.09;;;14.01;35.42
39455;BME280;25155;41.890;23.446;2023-03-23T11:54:06;91707.22;;;14.01;35.64
39455;BME280;25155;41.890;23.446;2023-03-23T11:56:37;91703.69;;;14.06;35.35
39455;BME280;25155;41.890;23.446;2023-03-23T11:59:10;91695.59;;;13.93;34.25
39455;BME280;25155;41.890;23.446;2023-03-23T12:01:54;91702.94;;;13.65;34.25
39455;BME280;25155;41.890;23.446;2023-03-23T12:04:31;91703.91;;;13.38;36.28
39455;BME280;25155;41.890;23.446;2023-03-23T12:07:27;91700.38;;;13.11;36.69
39455;BME280;25155;41.890;23.446;2023-03-23T12:10:08;91702.25;;;13.11;35.58
39455;BME280;25155;41.890;23.446;2023-03-23T12:12:43;91695.56;;;13.04;36.24
39455;BME280;25155;41.890;23.446;2023-03-23T12:15:22;91707.47;;;12.79;36.24
39455;BME280;25155;41.890;23.446;2023-03-23T12:17:55;91694.97;;;12.85;38.06
39455;BME280;25155;41.890;23.446;2023-03-23T12:20:32;91690.13;;;13.01;36.70
39455;BME280;25155;41.890;23.446;2023-03-23T12:23:11;91695.00;;;13.16;36.27
39455;BME280;25155;41.890;23.446;2023-03-23T12:28:41;91697.47;;;13.13;36.90
39455;BME280;25155;41.890;23.446;2023-03-23T12:31:15;91695.59;;;13.13;37.39
39455;BME280;25155;41.890;23.446;2023-03-23T12:33:51;91694.97;;;13.08;38.22
39455;BME280;25155;41.890;23.446;2023-03-23T12:36:30;91691.84;;;13.05;38.17
39455;BME280;25155;41.890;23.446;2023-03-23T12:42:15;91684.47;;;13.16;37.45
39455;BME280;25155;41.890;23.446;2023-03-23T12:44:46;91691.59;;;13.16;37.49
39455;BME280;25155;41.890;23.446;2023-03-23T12:47:31;91682.41;;;13.04;38.20
39455;BME280;25155;41.890;23.446;2023-03-23T12:50:05;91686.31;;;13.07;38.03
39455;BME280;25155;41.890;23.446;2023-03-23T12:52:41;91684.88;;;13.01;37.98
39455;BME280;25155;41.890;23.446;2023-03-23T12:55:19;91681.28;;;12.97;38.76
39455;BME280;25155;41.890;23.446;2023-03-23T12:57:53;91671.78;;;12.87;39.41
39455;BME280;25155;41.890;23.446;2023-03-23T13:00:27;91671.00;;;12.86;38.64
39455;BME280;25155;41.890;23.446;2023-03-23T13:02:58;91678.47;;;12.71;40.11
39455;BME280;25155;41.890;23.446;2023-03-23T13:05:34;91671.44;;;13.11;40.09
39455;BME280;25155;41.890;23.446;2023-03-23T13:08:09;91666.41;;;13.23;35.92
39455;BME280;25155;41.890;23.446;2023-03-23T13:10:43;91661.78;;;13.29;37.80
39455;BME280;25155;41.890;23.446;2023-03-23T13:13:16;91667.38;;;13.36;39.80
39455;BME280;25155;41.890;23.446;2023-03-23T13:15:52;91664.28;;;13.43;38.30
39455;BME280;25155;41.890;23.446;2023-03-23T13:18:30;91659.38;;;13.50;37.79
39455;BME280;25155;41.890;23.446;2023-03-23T13:21:07;91663.09;;;13.58;37.84
39455;BME280;25155;41.890;23.446;2023-03-23T13:23:39;91664.06;;;13.62;38.37